Time;durP1;ratioP1;P1;durP2;ratioP2;P2;SDS_P1;SDS_P2;PMS_P1;PMS_P2;Temp;Humidity;BMP_temperature;BMP_pressure;BME280_temperature;BME280_humidity;BME280_pressure;Samples;Min_cycle;Max_cycle;Signal;HPM_P1;HPM_P2
2023/01/29 00:01:14;;;;;;;11.65;8.50;;;;;;;0.05;74.07;100124.03;5107684;28;20036;-74
2023/01/29 00:03:41;;;;;;;10.98;8.60;;;;;;;0.04;74.08;100124.91;5107294;28;20052;-74
2023/01/29 00:06:10;;;;;;;10.88;8.50;;;;;;;-0.46;73.97;100055.44;5106553;28;20318;-74
2023/01/29 00:08:38;;;;;;;10.15;9.05;;;;;;;-0.01;73.99;100129.25;5107681;28;20040;-75
2023/01/29 00:11:07;;;;;;;16.48;8.60;;;;;;;-0.20;73.95;100101.44;5107738;28;20046;-74
2023/01/29 00:13:34;;;;;;;11.20;8.23;;;;;;;-0.02;74.03;100127.50;5106383;28;20046;-74
2023/01/29 00:16:02;;;;;;;14.88;10.93;;;;;;;-0.01;73.94;100131.84;5106666;28;20054;-74
2023/01/29 00:18:29;;;;;;;9.73;8.10;;;;;;;-0.04;73.98;100139.66;5106118;28;20295;-74
2023/01/29 00:20:56;;;;;;;10.10;7.13;;;;;;;-0.03;73.81;100130.97;5107676;28;20054;-74
2023/01/29 00:23:23;;;;;;;10.20;8.05;;;;;;;-0.02;73.78;100142.28;5107205;28;20299;-74
2023/01/29 00:25:51;;;;;;;10.85;8.07;;;;;;;-0.49;73.81;100055.44;5107300;28;20099;-74
2023/01/29 00:28:18;;;;;;;9.63;6.75;;;;;;;-0.04;74.20;100134.44;5106117;28;20046;-74
2023/01/29 00:30:45;;;;;;;9.52;7.70;;;;;;;-0.05;73.78;100136.19;5106791;28;20051;-73
2023/01/29 00:33:12;;;;;;;9.55;7.35;;;;;;;-0.06;73.81;100144.88;5107390;28;20044;-73
2023/01/29 00:35:40;;;;;;;11.30;8.20;;;;;;;-0.05;73.78;100137.94;5107364;28;20048;-74
2023/01/29 00:38:07;;;;;;;9.95;7.38;;;;;;;-1.13;73.62;99952.97;5106907;28;20047;-74
2023/01/29 00:46:05;;;;;;;8.98;7.32;;;;;;;-0.23;73.61;100124.91;5105726;28;20051;-74
2023/01/29 00:48:33;;;;;;;8.57;6.93;;;;;;;-0.09;73.60;100138.78;5107036;28;20141;-74
2023/01/29 00:51:00;;;;;;;10.23;7.53;;;;;;;-0.12;73.61;100131.84;5105646;28;20047;-74
2023/01/29 00:53:26;;;;;;;8.38;7.05;;;;;;;-0.24;73.37;100117.94;5105590;28;20289;-74
2023/01/29 00:55:53;;;;;;;10.00;7.97;;;;;;;-0.12;73.63;100138.78;5106301;28;20165;-74
2023/01/29 00:58:27;;;;;;;8.77;6.60;;;;;;;-0.13;73.39;100137.94;5105499;28;20047;-74
2023/01/29 01:00:54;;;;;;;10.57;7.65;;;;;;;-0.31;73.51;100105.78;5106341;28;20089;-74
2023/01/29 01:03:20;;;;;;;9.45;7.57;;;;;;;-0.13;73.41;100130.09;5106156;28;20055;-74
2023/01/29 01:05:47;;;;;;;9.68;8.13;;;;;;;-0.13;73.51;100129.25;5107340;28;20066;-74
2023/01/29 01:11:00;;;;;;;10.88;8.27;;;;;;;-0.17;73.36;100123.16;5105252;28;20043;-74
2023/01/29 01:13:29;;;;;;;12.65;8.73;;;;;;;-0.16;73.40;100124.91;5105267;28;20039;-74
2023/01/29 01:15:56;;;;;;;10.35;8.10;;;;;;;-0.14;73.28;100123.16;5105871;28;20032;-73
2023/01/29 01:18:22;;;;;;;12.63;9.15;;;;;;;-0.75;73.28;100024.16;5106291;28;20040;-74
2023/01/29 01:20:50;;;;;;;9.75;7.43;;;;;;;-0.14;73.02;100128.38;5106019;28;20044;-74
2023/01/29 01:23:18;;;;;;;10.15;8.30;;;;;;;-0.15;73.05;100131.84;5105362;28;20185;-74
2023/01/29 01:25:45;;;;;;;9.00;7.35;;;;;;;-0.60;73.08;100053.69;5105990;28;20226;-74
2023/01/29 01:28:12;;;;;;;9.45;7.00;;;;;;;-3.39;72.51;99582.75;5104832;28;20039;-74
2023/01/29 01:30:41;;;;;;;8.32;6.50;;;;;;;-0.72;72.73;100052.78;5106124;28;20278;-74
2023/01/29 01:33:08;;;;;;;9.13;6.82;;;;;;;-0.16;72.92;100124.91;5106342;28;20047;-74
2023/01/29 01:35:34;;;;;;;9.70;7.80;;;;;;;-0.16;72.69;100132.72;5105630;28;20254;-74
2023/01/29 01:38:01;;;;;;;10.27;7.72;;;;;;;-0.32;72.88;100107.53;5106021;28;20193;-73
2023/01/29 01:40:28;;;;;;;9.60;7.60;;;;;;;-1.09;72.81;99967.69;5105978;28;20032;-74
2023/01/29 01:42:58;;;;;;;9.20;6.85;;;;;;;-0.18;72.89;100138.78;5104882;28;20051;-74
2023/01/29 01:45:28;;;;;;;10.23;8.32;;;;;;;-0.19;72.78;100131.84;5105873;28;20284;-74
2023/01/29 01:48:01;;;;;;;9.23;7.75;;;;;;;-0.19;72.90;100134.44;5105782;28;20235;-74
2023/01/29 01:50:33;;;;;;;10.00;7.05;;;;;;;-0.19;72.68;100126.63;5105946;28;20043;-74
2023/01/29 01:53:07;;;;;;;8.23;6.93;;;;;;;-0.20;72.80;100128.38;5104675;28;20082;-74
2023/01/29 01:55:37;;;;;;;9.45;7.72;;;;;;;-0.18;72.74;100133.59;5106103;28;20048;-74
2023/01/29 01:58:10;;;;;;;7.90;6.47;;;;;;;-0.20;72.54;100140.53;5105718;28;20196;-74
2023/01/29 02:00:38;;;;;;;8.57;7.13;;;;;;;-0.20;72.72;100138.78;5104576;28;20212;-74
2023/01/29 02:11:37;;;;;;;9.02;6.95;;;;;;;-0.27;72.35;100149.19;5105469;28;20044;-73
2023/01/29 02:14:04;;;;;;;8.98;7.13;;;;;;;-0.26;72.41;100148.34;5104476;28;20036;-73
2023/01/29 02:16:30;;;;;;;8.63;7.07;;;;;;;-0.25;72.40;100144.88;5105331;28;20210;-73
2023/01/29 02:18:59;;;;;;;7.95;7.00;;;;;;;-0.29;72.07;100149.19;5105868;28;20048;-73
2023/01/29 02:22:06;;;;;;;8.32;6.90;;;;;;;-0.27;71.39;100150.06;5105775;28;20063;-74
2023/01/29 02:24:59;;;;;;;12.38;7.63;;;;;;;-0.30;71.45;100146.59;5105481;28;20052;-73
2023/01/29 02:27:36;;;;;;;7.40;5.65;;;;;;;-0.33;71.09;100162.22;5105464;28;20296;-73
2023/01/29 02:30:08;;;;;;;7.82;6.80;;;;;;;-0.34;71.49;100155.28;5105075;28;20076;-73
2023/01/29 02:32:53;;;;;;;7.85;6.82;;;;;;;-0.36;71.47;100155.28;5105140;28;20055;-73
2023/01/29 02:35:27;;;;;;;8.15;7.28;;;;;;;-0.81;71.48;100086.63;5105693;28;20191;-73
2023/01/29 02:38:01;;;;;;;7.53;6.10;;;;;;;-0.35;71.54;100159.63;5105165;28;20036;-73
2023/01/29 02:40:32;;;;;;;7.90;6.38;;;;;;;-0.38;71.48;100155.25;5108693;28;20039;-73
2023/01/29 02:43:08;;;;;;;8.65;6.65;;;;;;;-0.38;70.92;100154.41;5108088;28;20044;-73
2023/01/29 02:45:45;;;;;;;8.57;6.50;;;;;;;-0.39;70.85;100157.88;5108927;28;20052;-73
2023/01/29 02:48:17;;;;;;;7.13;6.40;;;;;;;-0.41;71.11;100159.59;5109140;28;20044;-73
2023/01/29 02:50:53;;;;;;;9.18;6.45;;;;;;;-0.39;70.89;100163.06;5108726;28;20044;-73
2023/01/29 02:53:25;;;;;;;8.23;7.03;;;;;;;-0.40;71.04;100161.34;5109041;28;20044;-73
2023/01/29 02:55:56;;;;;;;7.65;6.18;;;;;;;-0.40;71.09;100162.22;5108757;28;20052;-73
2023/01/29 02:58:30;;;;;;;7.88;6.10;;;;;;;-0.55;70.89;100136.13;5108951;28;20043;-73
2023/01/29 03:01:02;;;;;;;7.60;6.07;;;;;;;-0.40;70.67;100170.03;5108901;28;20054;-72
2023/01/29 03:03:33;;;;;;;8.60;6.53;;;;;;;-0.41;70.88;100170.03;5108360;28;20125;-73
2023/01/29 03:06:06;;;;;;;8.07;6.50;;;;;;;-0.43;70.68;100177.81;5109086;28;20052;-73
2023/01/29 03:08:41;;;;;;;9.48;6.25;;;;;;;-0.43;70.67;100169.16;5107584;28;20040;-73
2023/01/29 03:11:13;;;;;;;8.10;6.55;;;;;;;-0.42;70.75;100173.50;5108911;28;20040;-73
2023/01/29 03:13:44;;;;;;;11.35;6.30;;;;;;;-0.45;70.58;100179.56;5107614;28;20040;-73
2023/01/29 03:16:20;;;;;;;9.27;7.07;;;;;;;-0.45;70.20;100178.69;5107594;28;20047;-73
2023/01/29 03:18:53;;;;;;;9.25;7.57;;;;;;;-0.46;70.23;100187.38;5108821;28;20036;-73
2023/01/29 03:32:34;;;;;;;9.85;7.53;;;;;;;-0.54;70.51;100184.75;5107335;28;20040;-73
2023/01/29 03:35:05;;;;;;;8.38;6.82;;;;;;;-0.52;70.32;100187.34;5107150;28;20330;-73
2023/01/29 03:37:37;;;;;;;8.02;5.78;;;;;;;-0.52;70.29;100182.16;5108215;28;20174;-73
2023/01/29 03:40:06;;;;;;;8.40;5.43;;;;;;;-0.51;70.08;100181.28;5108176;28;20040;-73
2023/01/29 03:42:48;;;;;;;7.85;6.15;;;;;;;-0.52;69.59;100179.53;5107850;28;20055;-73
2023/01/29 03:45:21;;;;;;;9.00;6.75;;;;;;;-3.39;69.67;99683.81;5108314;28;20047;-73
2023/01/29 03:47:57;;;;;;;8.10;6.82;;;;;;;-0.56;69.93;100178.66;5108210;28;20051;-73
2023/01/29 03:50:37;;;;;;;6.82;5.93;;;;;;;-0.56;69.56;100169.97;5107702;28;20051;-72
2023/01/29 03:53:10;;;;;;;6.45;5.75;;;;;;;-0.60;69.38;100169.09;5107587;28;20119;-73
2023/01/29 03:55:42;;;;;;;7.38;5.97;;;;;;;-0.61;69.54;100159.56;5106762;28;20036;-73
2023/01/29 03:58:21;;;;;;;7.80;6.70;;;;;;;-0.60;69.18;100153.47;5107760;28;20040;-73
2023/01/29 04:00:55;;;;;;;8.02;6.10;;;;;;;-0.61;69.13;100150.88;5107810;28;20036;-73
2023/01/29 04:03:26;;;;;;;7.97;6.45;;;;;;;-0.62;69.49;100143.94;5107204;28;20071;-73
2023/01/29 04:05:57;;;;;;;8.55;6.63;;;;;;;-0.64;69.64;100145.66;5106547;28;20199;-73
2023/01/29 04:08:28;;;;;;;8.30;7.03;;;;;;;-0.65;69.57;100139.59;5107879;28;20071;-73
2023/01/29 04:10:59;;;;;;;8.30;6.10;;;;;;;-0.63;69.79;100143.06;5107886;28;20040;-73
2023/01/29 04:13:28;;;;;;;7.47;6.60;;;;;;;-0.63;69.79;100139.59;5107141;28;20048;-73
2023/01/29 04:15:59;;;;;;;9.32;7.38;;;;;;;-0.66;69.23;100131.78;5107485;28;20032;-72
2023/01/29 04:18:28;;;;;;;8.07;6.70;;;;;;;-0.66;69.51;100131.78;5106299;28;20189;-73
2023/01/29 04:20:55;;;;;;;10.05;7.60;;;;;;;-0.69;69.40;100133.50;5107070;28;20040;-73
2023/01/29 04:23:23;;;;;;;9.13;7.07;;;;;;;-0.69;69.40;100133.50;5107608;28;20043;-73
2023/01/29 04:26:05;;;;;;;7.75;6.88;;;;;;;-0.71;69.26;100135.22;5107291;28;20205;-73
2023/01/29 04:28:47;;;;;;;10.80;7.88;;;;;;;-0.72;68.80;100138.69;5107217;28;20051;-73
2023/01/29 04:31:14;;;;;;;9.02;7.40;;;;;;;-0.71;69.52;100145.66;5106791;28;20211;-73
2023/01/29 04:33:50;;;;;;;10.27;7.50;;;;;;;-0.72;69.25;100137.84;5107394;28;20048;-73
2023/01/29 04:36:28;;;;;;;8.98;7.60;;;;;;;-0.72;69.15;100138.69;5107335;28;20039;-73
2023/01/29 04:39:05;;;;;;;8.57;6.75;;;;;;;-0.72;69.25;100132.63;5107274;28;20062;-73
2023/01/29 04:41:36;;;;;;;8.93;6.43;;;;;;;-0.73;69.19;100139.56;5105814;28;20043;-73
2023/01/29 04:44:10;;;;;;;8.65;6.68;;;;;;;-0.74;69.15;100139.56;5105682;28;20062;-73
2023/01/29 04:46:47;;;;;;;9.60;7.88;;;;;;;-0.77;68.82;100145.63;5106556;28;20056;-73
2023/01/29 04:49:27;;;;;;;9.07;6.82;;;;;;;-0.79;68.88;100149.97;5106881;28;20047;-73
2023/01/29 04:52:01;;;;;;;8.68;6.30;;;;;;;-0.81;68.72;100151.69;5105596;28;20047;-73
2023/01/29 04:54:36;;;;;;;7.93;6.55;;;;;;;-0.81;68.50;100161.22;5106455;28;20246;-73
2023/01/29 04:57:11;;;;;;;8.32;6.55;;;;;;;-0.83;68.86;100160.34;5106713;28;20308;-73
2023/01/29 04:59:46;;;;;;;7.47;5.68;;;;;;;-0.84;68.30;100171.63;5105567;28;20044;-73
2023/01/29 05:02:13;;;;;;;6.18;5.03;;;;;;;-0.87;68.60;100172.47;5105561;28;20044;-73
2023/01/29 05:04:45;;;;;;;7.82;5.72;;;;;;;-1.53;68.67;100054.25;5105491;28;20056;-73
2023/01/29 05:07:14;;;;;;;7.15;5.95;;;;;;;-0.91;68.30;100168.13;5105412;28;20329;-73
2023/01/29 05:09:44;;;;;;;7.50;5.72;;;;;;;-0.96;67.98;100164.63;5106223;28;20267;-73
2023/01/29 05:12:14;;;;;;;7.68;5.68;;;;;;;-0.98;68.21;100168.97;5105238;28;20035;-73
2023/01/29 05:14:42;;;;;;;9.95;6.65;;;;;;;-0.99;68.24;100174.16;5106194;28;20054;-73
2023/01/29 05:17:15;;;;;;;7.82;6.22;;;;;;;-1.02;67.70;100169.78;5106580;28;20040;-72
2023/01/29 05:19:43;;;;;;;7.90;6.20;;;;;;;-1.03;68.07;100165.44;5106056;28;20051;-73
2023/01/29 05:22:12;;;;;;;8.25;6.63;;;;;;;-1.18;67.83;100139.34;5106260;28;20046;-73
2023/01/29 05:24:39;;;;;;;6.80;6.10;;;;;;;-1.06;67.76;100168.91;5106284;28;20183;-73
2023/01/29 05:29:50;;;;;;;9.00;7.35;;;;;;;-1.08;67.68;100157.63;5105091;28;20040;-73
2023/01/29 05:32:17;;;;;;;9.95;8.43;;;;;;;-1.06;67.50;100157.63;5104928;28;20040;-73
2023/01/29 05:34:45;;;;;;;8.10;6.45;;;;;;;-1.07;67.50;100150.69;5106147;28;20047;-73
2023/01/29 05:37:12;;;;;;;9.23;6.82;;;;;;;-1.07;67.57;100148.09;5106203;28;20222;-73
2023/01/29 05:39:38;;;;;;;10.02;7.63;;;;;;;-1.08;67.47;100149.81;5105761;28;20044;-73
2023/01/29 05:42:05;;;;;;;8.93;7.18;;;;;;;-1.06;67.40;100147.22;5106002;28;20284;-73
2023/01/29 05:44:32;;;;;;;8.13;6.80;;;;;;;-1.07;67.29;100161.09;5105979;28;20039;-73
2023/01/29 05:47:01;;;;;;;7.97;6.30;;;;;;;-1.09;66.90;100155.88;5105937;28;20270;-73
2023/01/29 05:49:28;;;;;;;8.02;6.30;;;;;;;-1.11;66.90;100159.34;5106260;28;20044;-73
2023/01/29 05:51:56;;;;;;;9.18;6.78;;;;;;;-1.12;66.83;100152.41;5106119;28;20044;-73
2023/01/29 05:54:23;;;;;;;7.43;5.95;;;;;;;-1.12;66.97;100158.47;5105611;28;20052;-73
2023/01/29 05:56:49;;;;;;;9.75;7.80;;;;;;;-1.12;66.98;100158.47;5106125;28;20208;-73
2023/01/29 05:59:16;;;;;;;6.93;6.20;;;;;;;-1.12;66.89;100160.19;5104756;28;20044;-73
2023/01/29 06:01:43;;;;;;;7.68;6.63;;;;;;;-1.14;67.08;100149.78;5106099;28;20187;-72
2023/01/29 06:04:10;;;;;;;8.20;6.53;;;;;;;-1.15;66.83;100153.25;5104537;28;20052;-73
2023/01/29 06:06:36;;;;;;;7.60;6.70;;;;;;;-1.16;66.70;100151.50;5105520;28;20115;-73
2023/01/29 06:09:04;;;;;;;8.77;7.03;;;;;;;-1.19;66.70;100156.69;5106096;28;20058;-73
2023/01/29 06:11:31;;;;;;;8.77;7.25;;;;;;;-1.21;66.84;100142.81;5105718;28;20044;-73
2023/01/29 06:13:58;;;;;;;8.23;7.18;;;;;;;-1.22;66.74;100141.06;5106710;28;20039;-73
2023/01/29 06:16:25;;;;;;;10.05;7.70;;;;;;;-1.21;66.90;100145.41;5108712;28;20047;-72
2023/01/29 06:18:51;;;;;;;8.15;7.18;;;;;;;-1.21;66.26;100137.63;5109786;28;20318;-73
2023/01/29 06:21:18;;;;;;;10.20;7.63;;;;;;;-1.21;66.72;100148.03;5109374;28;20047;-73
2023/01/29 06:23:45;;;;;;;8.35;7.10;;;;;;;-1.20;66.71;100148.88;5109656;28;20048;-73
2023/01/29 06:26:14;;;;;;;9.10;7.07;;;;;;;-1.22;66.37;100153.22;5109888;28;20040;-73
2023/01/29 06:28:44;;;;;;;9.38;7.43;;;;;;;-1.23;66.74;100154.94;5109565;28;20227;-73
2023/01/29 06:31:11;;;;;;;7.65;6.85;;;;;;;-1.21;66.59;100157.56;5109254;28;20052;-73
2023/01/29 06:33:38;;;;;;;8.43;6.22;;;;;;;-1.21;66.58;100153.22;5109481;28;20317;-73
2023/01/29 06:36:05;;;;;;;8.57;6.72;;;;;;;-1.22;66.53;100151.47;5109409;28;20048;-72
2023/01/29 06:38:32;;;;;;;10.07;7.05;;;;;;;-1.21;66.45;100161.03;5109661;28;20113;-73
2023/01/29 06:40:59;;;;;;;9.20;7.07;;;;;;;-1.22;66.43;100155.81;5109153;28;20055;-73
2023/01/29 06:43:27;;;;;;;8.75;7.65;;;;;;;-1.22;66.34;100153.22;5108969;28;20058;-73
2023/01/29 06:45:56;;;;;;;7.80;6.80;;;;;;;-1.24;66.07;100158.41;5108941;28;20044;-73
2023/01/29 06:48:23;;;;;;;7.90;6.53;;;;;;;-1.22;66.18;100163.63;5109420;28;20044;-73
2023/01/29 06:50:52;;;;;;;8.30;7.13;;;;;;;-1.24;66.33;100160.13;5108935;28;20207;-73
2023/01/29 06:53:19;;;;;;;7.70;6.90;;;;;;;-1.28;66.14;100164.44;5108692;28;20207;-72
2023/01/29 06:55:51;;;;;;;8.38;7.03;;;;;;;-1.30;65.68;100152.31;5108725;28;20074;-73
2023/01/29 06:58:18;;;;;;;7.63;6.70;;;;;;;-1.31;66.29;100154.03;5108676;28;20052;-73
2023/01/29 07:00:47;;;;;;;8.07;6.85;;;;;;;-1.31;66.16;100151.44;5108923;28;20096;-72
2023/01/29 07:03:14;;;;;;;8.68;7.38;;;;;;;-1.30;66.22;100158.38;5108793;28;20048;-72
2023/01/29 07:05:40;;;;;;;6.88;6.00;;;;;;;-1.33;65.98;100147.97;5109120;28;20052;-73
2023/01/29 07:08:08;;;;;;;7.30;6.50;;;;;;;-1.33;66.16;100140.16;5108520;28;20051;-73
2023/01/29 07:10:35;;;;;;;8.68;7.18;;;;;;;-1.33;65.91;100141.03;5109023;28;20044;-73
2023/01/29 07:13:02;;;;;;;8.40;6.25;;;;;;;-1.37;65.87;100131.47;5108394;28;20048;-73
2023/01/29 07:15:28;;;;;;;9.40;7.38;;;;;;;-1.37;65.90;100136.66;5108914;28;20040;-73
2023/01/29 07:17:58;;;;;;;8.23;7.35;;;;;;;-1.38;65.66;100144.47;5108879;28;20044;-73
2023/01/29 07:20:26;;;;;;;9.80;7.03;;;;;;;-1.37;66.00;100152.28;5108565;28;20349;-73
2023/01/29 07:22:53;;;;;;;8.15;7.25;;;;;;;-1.36;65.96;100141.00;5108181;28;20036;-72
2023/01/29 07:25:19;;;;;;;7.90;6.63;;;;;;;-1.35;65.83;100136.69;5108095;28;20211;-73
2023/01/29 07:27:46;;;;;;;9.32;7.43;;;;;;;-1.34;65.66;100144.47;5108142;28;20058;-73
2023/01/29 07:30:13;;;;;;;8.88;7.28;;;;;;;-1.32;65.67;100152.28;5108588;28;20055;-72
2023/01/29 07:32:41;;;;;;;8.73;7.65;;;;;;;-1.33;65.54;100145.34;5107386;28;20035;-72
2023/01/29 07:35:10;;;;;;;8.40;7.25;;;;;;;-1.34;65.62;100144.47;5107752;28;20044;-73
2023/01/29 07:37:37;;;;;;;9.63;7.47;;;;;;;-1.32;65.90;100149.69;5108444;28;20148;-73
2023/01/29 07:40:10;;;;;;;9.15;7.65;;;;;;;-1.29;65.38;100156.66;5107901;28;20042;-73
2023/01/29 07:42:37;;;;;;;8.95;8.05;;;;;;;-1.29;65.53;100154.03;5107851;28;20094;-73
2023/01/29 07:45:05;;;;;;;8.63;7.40;;;;;;;-1.29;65.56;100149.72;5108275;28;20055;-73
2023/01/29 07:47:32;;;;;;;9.13;8.20;;;;;;;-1.29;65.17;100154.91;5106902;28;20311;-72
2023/01/29 07:49:59;;;;;;;9.35;7.50;;;;;;;-1.33;65.12;100142.75;5106804;28;20051;-73
2023/01/29 07:52:29;;;;;;;11.80;7.72;;;;;;;-1.34;65.07;100151.41;5106687;28;20042;-72
2023/01/29 07:54:55;;;;;;;9.25;7.18;;;;;;;-1.52;64.71;100105.38;5107815;28;20044;-72
2023/01/29 07:57:22;;;;;;;9.38;6.75;;;;;;;-1.28;65.28;100153.19;5106575;28;20052;-73
2023/01/29 07:59:49;;;;;;;8.38;7.45;;;;;;;-1.29;65.17;100162.72;5107926;28;20036;-72
2023/01/29 08:02:16;;;;;;;9.55;7.93;;;;;;;-1.27;65.20;100158.38;5107651;28;20036;-73
2023/01/29 08:04:42;;;;;;;9.02;7.85;;;;;;;-1.27;65.15;100158.38;5107948;28;20058;-73
2023/01/29 08:07:09;;;;;;;11.05;8.45;;;;;;;-1.25;65.14;100172.28;5108268;28;20094;-73
2023/01/29 08:09:37;;;;;;;9.93;8.13;;;;;;;-1.26;64.60;100164.47;5107844;28;20040;-73
2023/01/29 08:12:04;;;;;;;9.48;7.78;;;;;;;-1.30;64.93;100179.19;5107661;28;20035;-72
2023/01/29 08:14:31;;;;;;;10.57;6.85;;;;;;;-1.30;64.98;100171.38;5107166;28;20040;-73
2023/01/29 08:16:58;;;;;;;9.07;7.82;;;;;;;-1.29;65.10;100167.91;5107552;28;20040;-72
2023/01/29 08:19:25;;;;;;;10.68;8.43;;;;;;;-1.25;65.01;100161.00;5107560;28;20043;-72
2023/01/29 08:21:51;;;;;;;11.43;9.13;;;;;;;-1.22;64.98;100167.09;5107031;28;20365;-73
2023/01/29 08:24:18;;;;;;;12.43;9.30;;;;;;;-1.19;64.60;100168.84;5106030;28;20296;-72
2023/01/29 08:26:46;;;;;;;10.75;8.73;;;;;;;-1.19;64.53;100169.69;5107260;28;20062;-73
2023/01/29 08:29:13;;;;;;;9.52;7.40;;;;;;;-1.17;64.52;100169.72;5107218;28;20056;-73
2023/01/29 08:31:40;;;;;;;10.27;8.63;;;;;;;-1.17;64.63;100167.97;5105931;28;20036;-72
2023/01/29 08:34:07;;;;;;;8.98;7.97;;;;;;;-1.17;64.68;100175.78;5107091;28;20329;-73
2023/01/29 08:36:34;;;;;;;9.50;7.32;;;;;;;-1.16;64.68;100180.13;5105099;28;20208;-73
2023/01/29 08:39:01;;;;;;;9.35;7.78;;;;;;;-1.13;64.71;100184.47;5106585;28;20096;-73
2023/01/29 08:41:28;;;;;;;9.07;7.20;;;;;;;-1.10;64.67;100192.28;5107100;28;20177;-73
2023/01/29 08:43:56;;;;;;;10.02;7.82;;;;;;;-1.11;64.36;100188.81;5105730;28;20295;-72
2023/01/29 08:46:23;;;;;;;12.68;9.05;;;;;;;-1.12;64.57;100204.41;5106595;28;20036;-73
2023/01/29 08:48:50;;;;;;;11.18;8.50;;;;;;;-1.12;64.61;100200.09;5106531;28;20048;-73
2023/01/29 08:51:17;;;;;;;9.38;7.80;;;;;;;-1.14;64.26;100201.81;5106968;28;20040;-73
2023/01/29 08:53:44;;;;;;;8.52;7.72;;;;;;;-1.15;64.31;100200.06;5106263;28;20241;-73
2023/01/29 08:56:11;;;;;;;9.13;7.68;;;;;;;-1.16;64.43;100200.94;5105409;28;20044;-73
2023/01/29 08:58:38;;;;;;;11.18;8.43;;;;;;;-1.17;64.44;100212.19;5106716;28;20043;-73
2023/01/29 09:01:11;;;;;;;8.68;7.78;;;;;;;-1.16;63.39;100208.75;5105288;28;20082;-73
2023/01/29 09:03:39;;;;;;;10.95;8.05;;;;;;;-1.16;64.20;100216.53;5106050;28;20308;-73
2023/01/29 09:06:07;;;;;;;10.25;8.65;;;;;;;-1.85;63.80;100097.38;5088288;28;20044;-73
2023/01/29 09:08:33;;;;;;;10.45;7.95;;;;;;;-1.17;64.25;100211.34;5104937;28;20300;-73
2023/01/29 09:11:00;;;;;;;9.48;8.38;;;;;;;-1.18;64.06;100207.88;5105133;28;20047;-73
2023/01/29 09:13:27;;;;;;;10.13;8.00;;;;;;;-1.14;64.13;100208.75;5106249;28;20062;-73
2023/01/29 09:15:54;;;;;;;10.18;8.05;;;;;;;-1.13;64.03;100208.75;5105820;28;20104;-73
2023/01/29 09:18:23;;;;;;;8.70;7.75;;;;;;;-1.14;63.88;100206.16;5105984;28;20070;-73
2023/01/29 09:20:50;;;;;;;12.98;9.95;;;;;;;-1.10;63.93;100208.78;5106337;28;20161;-73
2023/01/29 09:23:16;;;;;;;11.88;8.82;;;;;;;-1.07;63.74;100213.13;5105709;28;20160;-74
2023/01/29 09:25:43;;;;;;;9.93;8.25;;;;;;;-1.06;63.59;100202.72;5105376;28;20058;-74
2023/01/29 09:28:10;;;;;;;9.00;8.10;;;;;;;-1.65;63.71;100098.38;5105699;28;20031;-74
2023/01/29 09:30:37;;;;;;;9.35;7.78;;;;;;;-1.04;63.71;100198.41;5105087;28;20314;-74
2023/01/29 09:33:04;;;;;;;10.32;7.82;;;;;;;-1.03;63.72;100197.53;5104857;28;20044;-74
2023/01/29 09:35:33;;;;;;;8.60;7.70;;;;;;;-0.99;63.52;100201.06;5105443;28;20052;-74
2023/01/29 09:38:01;;;;;;;11.25;8.93;;;;;;;-0.94;63.60;100201.06;5104882;28;20040;-74
2023/01/29 09:40:37;;;;;;;8.93;8.02;;;;;;;-0.88;62.97;100194.16;5104604;28;20036;-73
2023/01/29 09:43:10;;;;;;;11.20;8.43;;;;;;;-0.85;63.25;100202.00;5105925;28;20046;-73
2023/01/29 09:45:42;;;;;;;9.85;8.43;;;;;;;-1.15;63.32;100137.63;5105432;28;20058;-73
2023/01/29 09:48:12;;;;;;;11.00;8.77;;;;;;;-0.74;63.34;100202.03;5105068;28;20055;-74
2023/01/29 09:50:44;;;;;;;12.40;9.52;;;;;;;-0.69;62.84;100205.53;5105922;28;20047;-74
2023/01/29 09:53:17;;;;;;;11.73;9.05;;;;;;;-0.68;62.77;100202.06;5105316;28;20039;-73
2023/01/29 09:55:49;;;;;;;11.25;9.88;;;;;;;-1.38;62.93;100080.31;5104703;28;20036;-74
2023/01/29 09:58:21;;;;;;;11.18;8.80;;;;;;;-0.60;62.90;100196.88;5105460;28;20051;-73
2023/01/29 10:00:57;;;;;;;11.10;9.25;;;;;;;-0.56;62.88;100204.69;5105905;28;20044;-74
2023/01/29 10:03:40;;;;;;;11.45;9.98;;;;;;;-0.51;62.30;100197.78;5105320;28;20052;-74
2023/01/29 10:06:25;;;;;;;10.85;8.82;;;;;;;-0.45;61.95;100200.41;5106062;28;20050;-74
2023/01/29 10:09:18;;;;;;;10.57;9.40;;;;;;;-0.42;62.05;100189.13;5105453;28;20046;-74
2023/01/29 10:11:54;;;;;;;11.60;9.80;;;;;;;-0.40;62.24;100193.47;5074947;28;20070;-74
2023/01/29 10:14:30;;;;;;;13.18;10.68;;;;;;;-0.35;62.45;100193.47;5105643;28;20111;-74
2023/01/29 10:17:10;;;;;;;11.15;9.77;;;;;;;-0.32;62.04;100195.22;5105336;28;20052;-73
2023/01/29 10:19:52;;;;;;;9.88;8.88;;;;;;;-0.29;61.31;100203.91;5105350;28;20047;-74
2023/01/29 10:22:52;;;;;;;12.38;9.50;;;;;;;-0.25;60.91;100200.44;5104309;28;20208;-73
2023/01/29 10:25:21;;;;;;;12.68;9.80;;;;;;;-0.21;62.91;100191.75;5105845;28;20040;-73
2023/01/29 10:27:51;;;;;;;10.90;9.80;;;;;;;-0.14;62.76;100200.47;5104499;28;20059;-73
2023/01/29 10:30:27;;;;;;;10.20;8.60;;;;;;;-0.08;62.38;100179.63;5104586;28;20040;-74
2023/01/29 10:32:55;;;;;;;12.77;10.75;;;;;;;0.04;62.62;100166.59;5106895;28;20046;-73
2023/01/29 10:35:28;;;;;;;10.88;9.55;;;;;;;0.14;62.26;100165.72;5105373;28;20043;-74
2023/01/29 10:38:02;;;;;;;11.27;9.85;;;;;;;-0.24;61.84;100063.25;5104584;28;20051;-74
2023/01/29 10:40:37;;;;;;;12.35;9.32;;;;;;;0.46;61.73;100157.00;5105149;28;20280;-74
2023/01/29 10:43:09;;;;;;;10.85;9.75;;;;;;;0.50;61.63;100154.38;5105512;28;20068;-73
2023/01/29 10:45:47;;;;;;;11.07;9.23;;;;;;;0.54;60.99;100161.34;5105221;28;20050;-73
2023/01/29 10:48:48;;;;;;;12.25;10.00;;;;;;;0.63;59.72;100155.22;5105734;28;20108;-74
2023/01/29 10:51:30;;;;;;;11.18;9.98;;;;;;;-0.43;60.50;99961.69;5105079;28;20044;-74
2023/01/29 10:54:14;;;;;;;10.73;8.73;;;;;;;0.59;59.93;100130.91;5105451;28;20124;-73
2023/01/29 10:56:53;;;;;;;11.38;9.65;;;;;;;0.73;60.49;100150.84;5105040;28;20035;-74
2023/01/29 10:59:40;;;;;;;13.00;9.98;;;;;;;0.72;59.48;100154.34;5105089;28;20054;-74
2023/01/29 11:02:16;;;;;;;11.15;8.95;;;;;;;0.69;60.27;100146.53;5108848;28;20051;-74
2023/01/29 11:04:43;;;;;;;15.10;9.38;;;;;;;0.69;61.45;100151.75;5107615;28;20040;-74
2023/01/29 11:07:11;;;;;;;12.00;9.40;;;;;;;0.65;60.91;100144.78;5108738;28;20226;-74
2023/01/29 11:09:45;;;;;;;12.40;10.00;;;;;;;0.61;60.66;100150.03;5108476;28;20231;-74
2023/01/29 11:12:15;;;;;;;12.00;9.20;;;;;;;0.61;61.54;100147.41;5107778;28;20048;-74
2023/01/29 11:14:47;;;;;;;10.85;9.00;;;;;;;0.56;60.85;100143.06;5108277;28;20311;-74
2023/01/29 11:17:17;;;;;;;10.52;9.43;;;;;;;0.50;61.08;100136.13;5107504;28;20304;-74
2023/01/29 11:19:46;;;;;;;11.00;9.40;;;;;;;0.49;61.49;100137.00;5108458;28;20036;-74
2023/01/29 11:22:15;;;;;;;10.75;9.27;;;;;;;-0.15;61.49;100035.44;5107644;28;20031;-74
2023/01/29 11:24:46;;;;;;;10.63;9.02;;;;;;;0.45;61.04;100126.59;5108499;28;20048;-74
2023/01/29 11:27:20;;;;;;;11.13;10.02;;;;;;;0.41;61.35;100110.06;5108178;28;20040;-74
2023/01/29 11:29:48;;;;;;;11.50;9.53;;;;;;;0.05;61.15;100021.50;5108710;28;20043;-74
2023/01/29 11:32:25;;;;;;;12.27;9.32;;;;;;;0.56;59.63;100096.13;5108674;28;20410;-74
2023/01/29 11:35:01;;;;;;;12.35;10.23;;;;;;;0.57;60.12;100088.28;5107959;28;20050;-74
2023/01/29 11:37:37;;;;;;;12.93;10.40;;;;;;;0.62;59.97;100090.88;5108331;28;20063;-74
2023/01/29 11:40:37;;;;;;;11.48;10.07;;;;;;;0.60;58.63;100082.19;5108290;28;20199;-74
2023/01/29 11:43:16;;;;;;;12.18;10.05;;;;;;;0.57;59.63;100072.66;5108411;28;20032;-74
2023/01/29 11:45:44;;;;;;;12.93;11.07;;;;;;;0.68;60.97;100069.13;5108129;28;20035;-74
2023/01/29 11:48:16;;;;;;;11.30;10.20;;;;;;;0.82;60.40;100062.09;5106637;28;20052;-74
2023/01/29 11:50:43;;;;;;;11.27;10.05;;;;;;;1.00;60.59;100064.63;5106955;28;20040;-74
2023/01/29 11:53:36;;;;;;;12.68;9.90;;;;;;;1.18;58.34;100055.81;5106745;28;20207;-74
2023/01/29 11:56:15;;;;;;;11.88;10.25;;;;;;;1.37;59.56;100043.50;5106818;28;20040;-74
2023/01/29 11:58:43;;;;;;;13.38;10.63;;;;;;;1.02;59.63;99950.63;5107736;28;20048;-74
2023/01/29 12:01:10;;;;;;;11.23;10.07;;;;;;;1.67;59.21;100022.41;5108102;28;20039;-74
2023/01/29 12:03:43;;;;;;;11.27;10.07;;;;;;;1.79;58.37;100016.22;5107436;28;20063;-74
2023/01/29 12:06:18;;;;;;;13.43;11.27;;;;;;;1.90;58.00;100003.91;5106586;28;20097;-74
2023/01/29 12:08:55;;;;;;;12.38;10.75;;;;;;;0.85;56.98;99808.97;5107729;28;20048;-74